createdAt,value
2022-10-17T00:03:50.681Z,101143.20
2022-10-17T00:08:54.267Z,101134.80
2022-10-17T00:13:57.936Z,101132.00
2022-10-17T00:19:01.607Z,101143.80
2022-10-17T00:24:06.067Z,101143.20
2022-10-17T00:29:09.552Z,101141.20
2022-10-17T00:34:12.878Z,101138.80
2022-10-17T00:39:16.290Z,101140.40
2022-10-17T00:44:31.689Z,101134.60
2022-10-17T00:49:38.886Z,101135.60
2022-10-17T00:54:49.263Z,101131.00
2022-10-17T00:59:57.600Z,101153.80
2022-10-17T01:13:34.448Z,101132.60
2022-10-17T01:18:57.746Z,101134.40
2022-10-17T01:24:54.415Z,101130.80
2022-10-17T01:30:29.849Z,101135.20
2022-10-17T01:35:52.617Z,101148.00
2022-10-17T01:41:14.780Z,101153.80
2022-10-17T01:46:36.414Z,101153.20
2022-10-17T01:52:11.472Z,101164.00
2022-10-17T01:57:36.254Z,101173.40
2022-10-17T02:02:41.114Z,101179.80
2022-10-17T02:07:44.443Z,101198.00
2022-10-17T02:13:09.442Z,101195.20
2022-10-17T02:18:49.846Z,101193.40
2022-10-17T02:24:25.900Z,101193.00
2022-10-17T02:29:38.657Z,101197.20
2022-10-17T02:34:48.622Z,101210.40
2022-10-17T02:39:53.981Z,101217.20
2022-10-17T02:45:01.791Z,101211.60
2022-10-17T02:50:07.026Z,101206.00
2022-10-17T02:55:19.893Z,101209.20
2022-10-17T03:00:26.187Z,101215.40
2022-10-17T03:05:30.413Z,101225.00
2022-10-17T03:10:33.692Z,101229.20
2022-10-17T03:15:37.094Z,101236.40
2022-10-17T03:20:40.546Z,101235.00
2022-10-17T03:25:43.862Z,101252.80
2022-10-17T03:30:47.153Z,101239.60
2022-10-17T03:40:58.815Z,101241.80
2022-10-17T03:46:02.735Z,101241.20
2022-10-17T03:51:09.842Z,101248.80
2022-10-17T03:56:19.921Z,101260.80
2022-10-17T04:01:24.457Z,101263.20
2022-10-17T04:06:27.757Z,101256.00
2022-10-17T04:11:31.096Z,101254.40
2022-10-17T04:16:34.583Z,101259.60
2022-10-17T04:21:38.220Z,101264.00
2022-10-17T04:26:41.521Z,101278.80
2022-10-17T04:31:45.038Z,101277.20
2022-10-17T04:36:48.649Z,101283.40
2022-10-17T04:41:51.934Z,101274.20
2022-10-17T04:46:55.203Z,101273.20
2022-10-17T04:51:58.483Z,101286.80
2022-10-17T04:57:01.809Z,101304.20
2022-10-17T05:02:05.175Z,101301.00
2022-10-17T05:07:08.725Z,101306.00
2022-10-17T05:12:12.280Z,101303.20
2022-10-17T05:17:15.939Z,101302.20
2022-10-17T05:22:19.182Z,101301.00
2022-10-17T05:27:22.417Z,101303.80
2022-10-17T05:32:25.717Z,101301.40
2022-10-17T05:37:31.123Z,101302.80
2022-10-17T05:50:46.482Z,101316.00
2022-10-17T05:56:00.971Z,101319.00
2022-10-17T06:01:09.415Z,101323.00
2022-10-17T06:06:16.821Z,101328.80
2022-10-17T06:11:20.440Z,101339.80
2022-10-17T06:16:25.647Z,101344.00
2022-10-17T06:21:31.741Z,101353.80
2022-10-17T06:26:36.247Z,101363.40
2022-10-17T06:31:39.752Z,101352.00
2022-10-17T06:36:43.604Z,101346.40
2022-10-17T06:41:46.958Z,101349.00
2022-10-17T06:46:50.369Z,101363.80
2022-10-17T06:51:54.219Z,101376.80
2022-10-17T06:56:57.546Z,101389.80
2022-10-17T07:02:05.629Z,101396.00
2022-10-17T07:07:08.839Z,101397.00
2022-10-17T07:12:13.078Z,101414.60
2022-10-17T07:17:18.230Z,101424.20
2022-10-17T07:22:21.646Z,101421.60
2022-10-17T07:27:24.938Z,101417.80
2022-10-17T07:32:28.266Z,101425.40
2022-10-17T07:37:31.992Z,101422.00
2022-10-17T07:47:43.736Z,101424.20
2022-10-17T07:52:47.042Z,101434.80
2022-10-17T07:57:50.355Z,101436.80
2022-10-17T08:02:53.633Z,101445.40
2022-10-17T08:07:56.945Z,101453.40
2022-10-17T08:13:00.394Z,101452.80
2022-10-17T08:18:03.742Z,101456.80
2022-10-17T08:23:07.220Z,101452.20
2022-10-17T08:28:10.476Z,101448.40
2022-10-17T08:33:14.070Z,101446.80
2022-10-17T08:38:20.925Z,101444.60
2022-10-17T08:43:59.589Z,101452.20
2022-10-17T08:49:13.441Z,101465.80
2022-10-17T08:54:39.792Z,101461.60
2022-10-17T08:59:46.106Z,101448.40
2022-10-17T09:05:26.894Z,101438.00
2022-10-17T09:10:50.870Z,101447.00
2022-10-17T09:16:16.799Z,101440.20
2022-10-17T09:21:32.609Z,101452.80
2022-10-17T09:26:36.184Z,101453.80
2022-10-17T09:32:19.879Z,101438.00
2022-10-17T09:37:33.330Z,101437.80
2022-10-17T09:42:37.735Z,101447.00
2022-10-17T09:48:19.280Z,101449.00
2022-10-17T09:53:38.260Z,101447.40
2022-10-17T09:58:55.801Z,101450.80
2022-10-17T10:04:10.167Z,101453.40
2022-10-17T10:09:27.438Z,101448.80
2022-10-17T10:14:39.897Z,101442.20
2022-10-17T10:19:51.348Z,101428.80
2022-10-17T10:25:18.002Z,101430.80
2022-10-17T10:30:36.116Z,101425.60
2022-10-17T10:35:42.585Z,101422.40
2022-10-17T10:40:57.094Z,101419.00
2022-10-17T10:46:01.701Z,101427.20
2022-10-17T10:51:14.900Z,101419.20
2022-10-17T10:56:25.786Z,101412.60
2022-10-17T11:01:37.799Z,101421.20
2022-10-17T11:06:45.298Z,101425.40
2022-10-17T11:12:13.681Z,101422.40
2022-10-17T11:17:36.890Z,101414.80
2022-10-17T11:22:47.470Z,101419.60
2022-10-17T11:27:50.985Z,101418.80
2022-10-17T11:33:00.959Z,101413.00
2022-10-17T11:38:45.314Z,101406.60
2022-10-17T11:43:56.809Z,101411.00
2022-10-17T11:49:20.609Z,101395.80
2022-10-17T11:54:44.415Z,101387.20
2022-10-17T12:00:37.972Z,101380.60
2022-10-17T12:05:59.403Z,101376.80
2022-10-17T12:11:16.519Z,101375.80
2022-10-17T12:16:22.552Z,101374.40
2022-10-17T12:21:29.730Z,101374.20
2022-10-17T12:26:34.701Z,101364.80
2022-10-17T12:31:38.218Z,101368.00
2022-10-17T12:36:42.446Z,101363.00
2022-10-17T12:41:46.788Z,101346.00
2022-10-17T12:46:52.154Z,101360.20
2022-10-17T12:52:23.623Z,101359.60
2022-10-17T12:57:54.851Z,101366.00
2022-10-17T13:03:16.644Z,101362.60
2022-10-17T13:08:37.456Z,101356.20
2022-10-17T13:13:52.440Z,101355.40
2022-10-17T13:18:56.801Z,101360.00
2022-10-17T13:24:01.400Z,101357.40
2022-10-17T13:29:14.966Z,101356.00
2022-10-17T13:34:25.380Z,101348.00
2022-10-17T13:39:58.158Z,101353.40
2022-10-17T13:45:05.095Z,101343.00
2022-10-17T13:50:39.429Z,101322.40
2022-10-17T13:55:38.289Z,101305.60
2022-10-17T14:00:42.145Z,101295.00
2022-10-17T14:06:11.569Z,101298.40
2022-10-17T14:11:30.002Z,101294.00
2022-10-17T14:16:42.635Z,101275.20
2022-10-17T14:21:49.854Z,101278.60
2022-10-17T14:27:00.969Z,101272.40
2022-10-17T14:32:13.353Z,101274.60
2022-10-17T14:37:57.439Z,101278.00
2022-10-17T14:43:06.264Z,101279.20
2022-10-17T14:48:19.923Z,101281.00
2022-10-17T14:53:23.242Z,101271.80
2022-10-17T14:58:33.175Z,101278.60
2022-10-17T15:03:36.573Z,101274.80
2022-10-17T15:08:40.077Z,101267.40
2022-10-17T15:13:45.714Z,101273.40
2022-10-17T15:18:50.233Z,101274.00
2022-10-17T15:23:53.545Z,101269.00
2022-10-17T15:28:56.834Z,101261.80
2022-10-17T15:34:00.157Z,101257.80
2022-10-17T15:39:03.790Z,101260.60
2022-10-17T15:44:07.289Z,101256.80
2022-10-17T15:49:17.474Z,101262.20
2022-10-17T15:54:20.793Z,101248.20
2022-10-17T15:59:32.696Z,101250.80
2022-10-17T16:04:36.112Z,101254.60
2022-10-17T16:09:39.898Z,101253.00
2022-10-17T16:14:43.367Z,101249.00
2022-10-17T16:19:46.870Z,101254.60
2022-10-17T16:24:50.202Z,101246.60
2022-10-17T16:29:53.722Z,101249.00
2022-10-17T16:34:57.515Z,101248.60
2022-10-17T16:40:00.883Z,101239.40
2022-10-17T16:45:05.536Z,101235.40
2022-10-17T16:50:10.022Z,101232.60
2022-10-17T16:55:13.642Z,101232.60
2022-10-17T17:00:18.290Z,101222.40
2022-10-17T17:05:21.638Z,101214.20
2022-10-17T17:10:24.979Z,101212.20
2022-10-17T17:15:28.415Z,101211.20
2022-10-17T17:20:33.881Z,101210.40
2022-10-17T17:25:39.741Z,101192.20
2022-10-17T17:30:43.162Z,101190.80
2022-10-17T17:35:46.466Z,101193.20
2022-10-17T17:40:51.365Z,101197.80
2022-10-17T17:45:54.947Z,101194.40
2022-10-17T17:51:02.867Z,101189.80
2022-10-17T17:56:16.714Z,101193.00
2022-10-17T18:01:23.789Z,101187.00
2022-10-17T18:06:28.949Z,101191.20
2022-10-17T18:11:32.902Z,101182.60
2022-10-17T18:16:37.955Z,101164.20
2022-10-17T18:21:41.366Z,101172.80
2022-10-17T18:26:44.612Z,101175.00
2022-10-17T18:31:47.993Z,101164.80
2022-10-17T18:36:53.105Z,101166.60
2022-10-17T18:41:57.139Z,101166.00
2022-10-17T18:47:03.847Z,101165.80
2022-10-17T18:52:07.902Z,101160.40
2022-10-17T18:57:11.611Z,101157.80
2022-10-17T19:02:14.978Z,101158.20
2022-10-17T19:07:20.306Z,101149.80
2022-10-17T19:12:23.692Z,101141.20
2022-10-17T19:17:27.187Z,101135.40
2022-10-17T19:22:31.547Z,101132.80
2022-10-17T19:27:34.959Z,101124.00
2022-10-17T19:32:38.996Z,101116.00
2022-10-17T19:37:42.405Z,101117.40
2022-10-17T19:42:45.712Z,101115.00
2022-10-17T19:47:49.125Z,101122.80
2022-10-17T19:52:52.436Z,101127.60
2022-10-17T19:57:56.158Z,101117.00
2022-10-17T20:02:59.454Z,101116.00
2022-10-17T20:08:03.156Z,101111.40
2022-10-17T20:13:06.607Z,101112.60
2022-10-17T20:18:10.525Z,101111.80
2022-10-17T20:23:13.843Z,101103.80
2022-10-17T20:28:17.266Z,101092.80
2022-10-17T20:33:21.337Z,101101.00
2022-10-17T20:38:25.009Z,101089.80
2022-10-17T20:43:28.422Z,101084.20
2022-10-17T20:48:31.930Z,101088.60
2022-10-17T20:53:37.517Z,101085.40
2022-10-17T20:58:41.425Z,101081.20
2022-10-17T21:03:46.575Z,101081.00
2022-10-17T21:08:54.457Z,101083.60
2022-10-17T21:14:04.914Z,101083.80
2022-10-17T21:19:10.980Z,101079.80
2022-10-17T21:24:21.060Z,101085.40
2022-10-17T21:29:24.958Z,101086.20
2022-10-17T21:34:29.047Z,101084.80
2022-10-17T21:39:32.848Z,101083.00
2022-10-17T21:44:36.519Z,101082.20
2022-10-17T21:49:40.087Z,101082.20
2022-10-17T21:54:43.773Z,101078.00
2022-10-17T21:59:47.076Z,101075.00
2022-10-17T22:04:50.386Z,101067.80
2022-10-17T22:09:53.904Z,101063.40
2022-10-17T22:14:57.209Z,101073.20
2022-10-17T22:20:00.756Z,101069.20
2022-10-17T22:25:04.985Z,101067.80
2022-10-17T22:30:09.833Z,101055.00
2022-10-17T22:35:13.789Z,101061.20
2022-10-17T22:40:17.279Z,101061.60
2022-10-17T22:45:20.667Z,101050.60
2022-10-17T22:50:24.901Z,101055.00
2022-10-17T22:55:28.412Z,101051.00
2022-10-17T23:00:31.826Z,101053.60
2022-10-17T23:05:35.244Z,101052.40
2022-10-17T23:10:38.998Z,101051.80
2022-10-17T23:15:42.952Z,101051.20
2022-10-17T23:20:46.713Z,101042.80
2022-10-17T23:25:51.639Z,101046.80
2022-10-17T23:30:54.972Z,101045.40
2022-10-17T23:35:58.211Z,101047.00
2022-10-17T23:41:01.491Z,101042.80
2022-10-17T23:46:07.118Z,101040.00
2022-10-17T23:51:11.324Z,101035.60
2022-10-17T23:56:15.290Z,101035.00
